createdAt,value
2022-09-24T00:02:40.199Z,62.18
2022-09-24T00:07:44.143Z,62.23
2022-09-24T00:12:47.791Z,62.14
2022-09-24T00:17:50.371Z,62.13
2022-09-24T00:22:54.331Z,62.31
2022-09-24T00:27:57.059Z,62.30
2022-09-24T00:32:59.638Z,62.42
2022-09-24T00:38:05.833Z,62.68
2022-09-24T00:43:29.919Z,62.75
2022-09-24T00:48:34.133Z,62.83
2022-09-24T00:53:38.430Z,62.92
2022-09-24T00:58:41.233Z,63.04
2022-09-24T01:03:43.824Z,63.40
2022-09-24T01:08:48.373Z,63.41
2022-09-24T01:14:04.874Z,63.77
2022-09-24T01:19:24.486Z,63.77
2022-09-24T01:24:47.114Z,63.80
2022-09-24T01:30:03.165Z,63.98
2022-09-24T01:35:13.359Z,64.05
2022-09-24T01:40:16.991Z,64.27
2022-09-24T01:45:21.908Z,64.46
2022-09-24T01:50:26.049Z,64.55
2022-09-24T01:55:34.057Z,64.55
2022-09-24T02:00:42.448Z,64.85
2022-09-24T02:05:51.022Z,64.89
2022-09-24T02:10:58.784Z,64.86
2022-09-24T02:16:06.770Z,65.19
2022-09-24T02:21:12.365Z,65.40
2022-09-24T02:26:15.313Z,65.37
2022-09-24T02:31:25.310Z,65.38
2022-09-24T02:36:29.646Z,65.49
2022-09-24T02:41:33.088Z,65.53
2022-09-24T02:46:37.024Z,65.56
2022-09-24T02:51:39.716Z,65.72
2022-09-24T02:56:42.411Z,65.85
2022-09-24T03:01:46.727Z,66.13
2022-09-24T03:06:49.503Z,66.06
2022-09-24T03:11:52.354Z,66.04
2022-09-24T03:16:56.267Z,66.16
2022-09-24T03:21:58.908Z,66.34
2022-09-24T03:27:01.648Z,66.25
2022-09-24T03:32:05.990Z,66.33
2022-09-24T03:37:08.822Z,66.39
2022-09-24T03:42:11.407Z,66.45
2022-09-24T03:47:15.323Z,66.69
2022-09-24T03:52:18.105Z,66.62
2022-09-24T03:57:20.995Z,66.71
2022-09-24T04:02:24.966Z,66.77
2022-09-24T04:07:27.549Z,66.80
2022-09-24T04:12:31.123Z,66.83
2022-09-24T04:17:35.284Z,67.04
2022-09-24T04:22:39.232Z,66.97
2022-09-24T04:27:41.779Z,67.03
2022-09-24T04:32:45.973Z,67.34
2022-09-24T04:37:49.074Z,67.17
2022-09-24T04:42:52.500Z,67.12
2022-09-24T04:47:57.339Z,67.41
2022-09-24T04:53:00.589Z,67.21
2022-09-24T04:58:03.195Z,67.63
2022-09-24T05:03:07.246Z,67.65
2022-09-24T05:08:10.020Z,67.69
2022-09-24T05:13:12.695Z,67.73
2022-09-24T05:18:16.671Z,67.95
2022-09-24T05:23:19.285Z,67.82
2022-09-24T05:28:22.251Z,68.06
2022-09-24T05:33:26.212Z,68.26
2022-09-24T05:38:29.869Z,68.22
2022-09-24T05:43:32.511Z,68.16
2022-09-24T05:48:36.596Z,68.22
2022-09-24T05:53:39.205Z,68.12
2022-09-24T05:58:41.796Z,68.48
2022-09-24T06:03:45.900Z,68.30
2022-09-24T06:08:48.492Z,68.33
2022-09-24T06:13:51.372Z,68.51
2022-09-24T06:18:55.294Z,68.64
2022-09-24T06:23:57.969Z,68.51
2022-09-24T06:29:04.669Z,68.51
2022-09-24T06:34:09.744Z,68.50
2022-09-24T06:39:12.420Z,68.65
2022-09-24T06:44:15.075Z,68.54
2022-09-24T06:49:19.225Z,68.75
2022-09-24T06:54:22.341Z,68.80
2022-09-24T06:59:24.985Z,68.92
2022-09-24T07:04:28.870Z,68.61
2022-09-24T07:09:31.687Z,68.81
2022-09-24T07:14:34.255Z,68.32
2022-09-24T07:19:38.436Z,67.62
2022-09-24T07:24:41.478Z,67.39
2022-09-24T07:29:44.208Z,67.58
2022-09-24T07:34:48.411Z,66.61
2022-09-24T07:39:51.045Z,66.53
2022-09-24T07:44:53.700Z,65.75
2022-09-24T07:49:57.630Z,58.21
2022-09-24T07:55:00.360Z,56.84
2022-09-24T08:00:03.333Z,57.41
2022-09-24T08:05:16.575Z,59.45
2022-09-24T08:10:19.440Z,59.89
2022-09-24T08:15:22.734Z,60.42
2022-09-24T08:20:26.900Z,61.27
2022-09-24T08:25:29.557Z,61.42
2022-09-24T08:30:33.284Z,61.45
2022-09-24T08:35:39.923Z,61.36
2022-09-24T08:40:46.932Z,61.57
2022-09-24T08:46:14.282Z,61.72
2022-09-24T08:51:21.061Z,61.81
2022-09-24T08:56:27.769Z,62.12
2022-09-24T09:01:40.618Z,62.77
2022-09-24T09:06:57.247Z,64.09
2022-09-24T09:12:03.670Z,64.61
2022-09-24T09:17:18.282Z,65.18
2022-09-24T09:22:26.279Z,65.71
2022-09-24T09:27:29.722Z,65.66
2022-09-24T09:32:47.346Z,66.36
2022-09-24T09:37:59.626Z,66.76
2022-09-24T09:43:03.887Z,67.01
2022-09-24T09:48:12.643Z,66.76
2022-09-24T09:53:25.212Z,66.92
2022-09-24T09:58:29.891Z,66.30
2022-09-24T10:03:34.904Z,65.86
2022-09-24T10:08:40.163Z,65.66
2022-09-24T10:13:42.818Z,65.22
2022-09-24T10:18:48.680Z,65.13
2022-09-24T10:23:52.853Z,65.24
2022-09-24T10:29:09.590Z,65.57
2022-09-24T10:34:22.423Z,65.59
2022-09-24T10:39:26.585Z,65.77
2022-09-24T10:44:36.236Z,66.17
2022-09-24T10:49:55.285Z,66.86
2022-09-24T10:55:11.880Z,66.80
2022-09-24T11:00:20.005Z,66.51
2022-09-24T11:05:23.620Z,66.61
2022-09-24T11:10:44.421Z,66.37
2022-09-24T11:16:10.494Z,66.00
2022-09-24T11:21:27.595Z,65.69
2022-09-24T11:26:42.534Z,65.74
2022-09-24T11:31:55.403Z,65.78
2022-09-24T11:37:12.947Z,65.80
2022-09-24T11:42:25.211Z,65.56
2022-09-24T11:47:41.724Z,65.51
2022-09-24T11:52:49.010Z,65.30
2022-09-24T11:57:58.522Z,65.15
2022-09-24T12:03:07.323Z,64.86
2022-09-24T12:08:13.777Z,64.65
2022-09-24T12:13:24.049Z,64.39
2022-09-24T12:18:30.951Z,63.94
2022-09-24T12:23:39.103Z,63.08
2022-09-24T12:29:10.734Z,62.92
2022-09-24T12:34:24.647Z,62.75
2022-09-24T12:39:32.344Z,62.12
2022-09-24T12:44:45.337Z,62.35
2022-09-24T12:49:55.718Z,61.97
2022-09-24T12:55:02.133Z,61.85
2022-09-24T13:00:38.335Z,61.65
2022-09-24T13:05:49.487Z,61.17
2022-09-24T13:10:56.315Z,61.09
2022-09-24T13:16:04.529Z,60.74
2022-09-24T13:21:10.099Z,60.51
2022-09-24T13:26:26.764Z,60.58
2022-09-24T13:31:48.813Z,60.09
2022-09-24T13:36:58.487Z,59.92
2022-09-24T13:42:08.334Z,59.11
2022-09-24T13:47:20.853Z,58.73
2022-09-24T13:52:32.151Z,58.59
2022-09-24T13:57:44.212Z,58.58
2022-09-24T14:02:58.254Z,58.57
2022-09-24T14:08:05.823Z,58.51
2022-09-24T14:13:19.110Z,58.54
2022-09-24T14:18:23.424Z,59.11
2022-09-24T14:23:31.191Z,58.79
2022-09-24T14:28:35.151Z,59.15
2022-09-24T14:33:40.934Z,58.84
2022-09-24T14:38:53.906Z,58.99
2022-09-24T14:44:02.200Z,58.94
2022-09-24T14:49:07.658Z,58.16
2022-09-24T14:54:22.719Z,58.75
2022-09-24T14:59:31.040Z,58.11
2022-09-24T15:04:35.450Z,58.61
2022-09-24T15:09:38.254Z,58.35
2022-09-24T15:14:40.910Z,58.65
2022-09-24T15:19:45.897Z,58.59
2022-09-24T15:24:48.560Z,57.80
2022-09-24T15:29:51.324Z,58.03
2022-09-24T15:34:56.606Z,58.63
2022-09-24T15:40:05.915Z,58.41
2022-09-24T15:45:16.112Z,58.71
2022-09-24T15:50:21.437Z,58.07
2022-09-24T15:55:24.507Z,58.78
2022-09-24T16:00:27.209Z,59.13
2022-09-24T16:05:31.152Z,59.43
2022-09-24T16:10:33.751Z,59.33
2022-09-24T16:15:36.797Z,59.68
2022-09-24T16:20:41.995Z,60.39
2022-09-24T16:25:55.591Z,60.81
2022-09-24T16:30:58.917Z,60.59
2022-09-24T16:36:07.127Z,53.17
2022-09-24T16:41:10.547Z,52.64
2022-09-24T16:46:17.893Z,52.13
2022-09-24T16:51:24.012Z,52.13
2022-09-24T16:56:27.126Z,53.98
2022-09-24T17:01:29.939Z,54.54
2022-09-24T17:06:34.250Z,54.96
2022-09-24T17:11:39.275Z,55.26
2022-09-24T17:16:43.193Z,55.14
2022-09-24T17:21:50.058Z,55.52
2022-09-24T17:26:54.046Z,55.51
2022-09-24T17:31:56.747Z,55.85
2022-09-24T17:37:00.682Z,56.30
2022-09-24T17:42:03.340Z,56.04
2022-09-24T17:47:06.759Z,56.41
2022-09-24T17:52:13.522Z,56.18
2022-09-24T17:57:16.248Z,56.51
2022-09-24T18:02:19.031Z,57.10
2022-09-24T18:07:24.768Z,56.97
2022-09-24T18:12:27.410Z,56.85
2022-09-24T18:17:30.060Z,56.94
2022-09-24T18:22:34.060Z,57.78
2022-09-24T18:27:37.932Z,58.39
2022-09-24T18:32:40.630Z,58.92
2022-09-24T18:37:44.689Z,58.89
2022-09-24T18:42:47.409Z,59.20
2022-09-24T18:47:50.091Z,59.22
2022-09-24T18:52:54.105Z,59.26
2022-09-24T18:57:57.442Z,59.58
2022-09-24T19:03:00.443Z,59.35
2022-09-24T19:08:04.768Z,59.67
2022-09-24T19:13:07.661Z,59.64
2022-09-24T19:18:12.883Z,59.91
2022-09-24T19:23:17.446Z,59.97
2022-09-24T19:28:20.049Z,59.83
2022-09-24T19:33:23.258Z,59.96
2022-09-24T19:38:29.835Z,60.05
2022-09-24T19:43:33.265Z,60.05
2022-09-24T19:48:38.382Z,59.73
2022-09-24T19:53:43.008Z,59.90
2022-09-24T19:58:46.530Z,59.76
2022-09-24T20:03:49.643Z,59.88
2022-09-24T20:08:53.814Z,60.24
2022-09-24T20:13:57.061Z,60.18
2022-09-24T20:18:59.763Z,60.20
2022-09-24T20:24:06.146Z,60.39
2022-09-24T20:29:10.112Z,60.38
2022-09-24T20:34:12.758Z,59.85
2022-09-24T20:39:16.895Z,59.70
2022-09-24T20:44:21.432Z,59.77
2022-09-24T20:49:24.778Z,59.91
2022-09-24T20:54:29.343Z,59.89
2022-09-24T20:59:31.962Z,60.13
2022-09-24T21:04:35.213Z,59.93
2022-09-24T21:09:39.310Z,60.27
2022-09-24T21:14:42.069Z,59.77
2022-09-24T21:19:44.653Z,60.27
2022-09-24T21:24:49.299Z,60.61
2022-09-24T21:29:51.876Z,60.51
2022-09-24T21:34:54.494Z,60.68
2022-09-24T21:39:58.435Z,61.04
2022-09-24T21:45:01.059Z,61.00
2022-09-24T21:50:03.711Z,61.01
2022-09-24T21:55:11.017Z,61.20
2022-09-24T22:00:14.963Z,61.44
2022-09-24T22:05:19.701Z,61.49
2022-09-24T22:10:23.825Z,61.58
2022-09-24T22:15:26.465Z,61.98
2022-09-24T22:20:29.308Z,61.96
2022-09-24T22:25:33.395Z,62.14
2022-09-24T22:30:35.964Z,62.02
2022-09-24T22:35:48.998Z,61.76
2022-09-24T22:40:53.134Z,62.25
2022-09-24T22:45:58.111Z,62.13
2022-09-24T22:51:00.881Z,62.20
2022-09-24T22:56:07.261Z,62.48
2022-09-24T23:01:12.343Z,62.46
2022-09-24T23:06:14.985Z,62.53
2022-09-24T23:11:20.941Z,62.53
2022-09-24T23:16:25.495Z,62.59
2022-09-24T23:21:31.159Z,62.47
2022-09-24T23:26:35.189Z,62.78
2022-09-24T23:31:38.500Z,62.62
2022-09-24T23:36:41.156Z,62.69
2022-09-24T23:41:45.292Z,62.46
2022-09-24T23:46:47.841Z,62.69
2022-09-24T23:51:50.410Z,62.79
2022-09-24T23:56:54.371Z,62.83
